Topsail Beach, North Carolina
Current Conditions -  °F | °C
As of 8:56 PM on Monday 20 Oct 2014 (Local Time) from KNCA Reporting Station
Overcast Overcast  
Wind Chill: 62°   Ceiling: 4900
Heat Index: 62°   Visibility: 10mi
Dew Point: 58°   Wind: 0mph
Humidity: 86%   Direction: NA
Pressure: 30.01"   Gusts: NA
Location:  34.4895°N, 77.514°W
Report Text: KNCA 210056Z AUTO 00000KT 10SM BKN049 OVC070 17/14 A3001 RMK AO2 SLP166 T01670144
Loading
Personal Weather Stations






























Interactive Weather Map
Tropical Storm Tracking
New forecast layout! Learn more

10-Day Weather Forecast

Advertisements
Track Severe Weather on mobile